Terminal Aerodrome Forecast
Issued by NWS

Home | Current Version | Previous Version | Text Only | Print | Product List | Glossary On
Versions: 1 2 3 4 5 6 7 8 9 10 11 12 13 14 15 16 17 18 19 20 21 22 23 24 25 26 27 28 29 30 31 32 33 34 35 36 37 38 39 40
000
FTUS45 KBOU 251123
TAFBJC
TAF
KBJC 251123Z 2512/2612 29007KT P6SM SCT120 BKN200
     FM251700 02010KT P6SM SCT080 OVC140
     FM252200 02012G20KT 3SM -SN SCT012 OVC020
      TEMPO 2523/2601 1SM -SN BR BKN006 OVC012
     FM260100 02012G22KT 1SM -SN BR BKN006 OVC012
      TEMPO 2601/2605 1/2SM SN VV003
     FM260500 36012KT 3SM -SN BR BKN006 OVC012
      TEMPO 2605/2609 1SM -SN BR OVC004=

USA.gov is the U.S. government's official web portal to all federal, state and local government web resources and services.